Time;durP1;ratioP1;P1;durP2;ratioP2;P2;SDS_P1;SDS_P2;PMS_P1;PMS_P2;Temp;Humidity;BMP_temperature;BMP_pressure;BME280_temperature;BME280_humidity;BME280_pressure;Samples;Min_cycle;Max_cycle;Signal;HPM_P1;HPM_P2
2023/01/07 00:02:09;;;;;;;14.13;7.67;;;6.30;99.90;;;;;;4955882;28;20475;-61
2023/01/07 00:04:37;;;;;;;12.87;8.30;;;6.30;99.90;;;;;;4956525;29;20234;-60
2023/01/07 00:07:05;;;;;;;14.63;9.33;;;6.20;99.90;;;;;;4940000;29;20472;-60
2023/01/07 00:09:34;;;;;;;14.90;9.40;;;6.30;99.90;;;;;;4956688;28;20231;-60
2023/01/07 00:12:02;;;;;;;15.47;9.53;;;6.30;99.90;;;;;;4957264;29;20631;-60
2023/01/07 00:14:30;;;;;;;16.67;9.40;;;6.30;99.90;;;;;;4957026;29;20474;-59
2023/01/07 00:16:58;;;;;;;16.47;10.63;;;6.30;99.90;;;;;;4956868;29;20235;-60
2023/01/07 00:19:28;;;;;;;14.67;10.20;;;6.30;99.90;;;;;;4955750;28;20237;-60
2023/01/07 00:21:56;;;;;;;17.67;11.33;;;6.40;99.90;;;;;;4957025;29;20302;-60
2023/01/07 00:24:25;;;;;;;22.47;13.03;;;6.40;99.90;;;;;;4956720;28;20238;-59
2023/01/07 00:26:53;;;;;;;20.20;12.07;;;6.40;99.90;;;;;;4956664;28;20239;-60
2023/01/07 00:29:22;;;;;;;21.53;12.80;;;6.40;99.90;;;;;;4956856;28;20263;-59
2023/01/07 00:31:50;;;;;;;18.03;12.30;;;6.40;99.90;;;;;;4956174;28;20365;-60
2023/01/07 00:34:22;;;;;;;21.67;12.37;;;6.40;99.90;;;;;;4954950;29;20234;-59
2023/01/07 00:37:16;;;;;;;19.57;13.27;;;6.40;99.90;;;;;;4955255;28;20572;-60
2023/01/07 00:39:40;;;;;;;23.23;13.80;;;6.40;99.90;;;;;;4956240;28;20241;-60
2023/01/07 00:44:55;;;;;;;24.23;14.17;;;6.50;99.90;;;;;;4956752;29;20475;-61
2023/01/07 00:47:23;;;;;;;23.33;15.23;;;6.50;99.90;;;;;;4955135;29;20486;-60
2023/01/07 00:49:51;;;;;;;24.27;15.63;;;6.50;99.90;;;;;;4956467;28;20238;-61
2023/01/07 00:52:21;;;;;;;26.60;16.47;;;6.60;99.90;;;;;;4956570;28;20669;-61
2023/01/07 00:54:50;;;;;;;25.13;16.03;;;6.50;99.90;;;;;;4954915;29;20639;-61
2023/01/07 00:57:18;;;;;;;25.37;15.93;;;6.60;99.90;;;;;;4956140;29;20231;-61
2023/01/07 00:59:47;;;;;;;24.70;16.03;;;6.60;99.90;;;;;;4954470;28;20718;-61
2023/01/07 01:02:15;;;;;;;24.13;16.63;;;6.60;99.90;;;;;;4955361;28;20238;-60
2023/01/07 01:04:44;;;;;;;24.93;17.03;;;6.60;99.90;;;;;;4955701;28;20483;-61
2023/01/07 01:07:12;;;;;;;21.63;15.40;;;6.60;99.90;;;;;;4956328;28;20239;-60
2023/01/07 01:09:42;;;;;;;24.20;15.77;;;6.60;99.90;;;;;;4955764;28;20691;-59
2023/01/07 01:12:10;;;;;;;24.67;16.37;;;6.70;99.90;;;;;;4955921;28;20278;-60
2023/01/07 01:14:38;;;;;;;26.40;17.50;;;6.70;99.90;;;;;;4955635;28;20318;-61
2023/01/07 01:17:07;;;;;;;24.13;15.53;;;6.60;99.90;;;;;;4955896;28;20227;-60
2023/01/07 01:19:35;;;;;;;27.17;15.80;;;6.70;99.90;;;;;;4955613;28;20756;-60
2023/01/07 01:22:04;;;;;;;26.90;17.57;;;6.70;99.90;;;;;;4955681;29;20315;-60
2023/01/07 01:24:32;;;;;;;27.37;17.43;;;6.70;99.90;;;;;;4955578;28;20227;-60
2023/01/07 01:27:02;;;;;;;25.97;17.07;;;6.70;99.90;;;;;;4955471;28;20588;-60
2023/01/07 01:29:30;;;;;;;29.43;18.40;;;6.80;99.90;;;;;;4955229;28;20226;-60
2023/01/07 01:31:59;;;;;;;25.27;17.70;;;6.80;99.90;;;;;;4953730;28;20239;-60
2023/01/07 01:34:30;;;;;;;26.87;17.10;;;6.80;99.90;;;;;;4955212;28;20238;-60
2023/01/07 01:36:59;;;;;;;27.47;18.87;;;6.80;99.90;;;;;;4955419;29;20235;-60
2023/01/07 01:39:30;;;;;;;26.20;18.00;;;6.80;99.90;;;;;;4955466;28;20232;-60
2023/01/07 01:41:58;;;;;;;29.83;19.43;;;6.80;99.90;;;;;;4954188;29;20238;-60
2023/01/07 01:44:38;;;;;;;27.10;18.80;;;6.90;99.90;;;;;;4953972;29;20286;-58
2023/01/07 01:47:16;;;;;;;31.50;20.30;;;6.90;99.90;;;;;;4954036;29;20311;-60
2023/01/07 01:49:49;;;;;;;30.83;19.90;;;6.90;99.90;;;;;;4955147;28;20237;-59
2023/01/07 01:52:26;;;;;;;32.13;20.30;;;6.90;99.90;;;;;;4953934;29;20239;-60
2023/01/07 01:55:00;;;;;;;29.73;19.90;;;6.90;99.90;;;;;;4955051;28;20231;-59
2023/01/07 01:57:31;;;;;;;33.47;21.43;;;6.90;99.90;;;;;;4939073;29;20326;-59
2023/01/07 02:00:02;;;;;;;33.17;21.30;;;7.00;99.90;;;;;;4953460;28;20266;-60
2023/01/07 02:02:44;;;;;;;38.47;23.40;;;7.00;99.90;;;;;;4954141;28;20800;-60
2023/01/07 02:05:13;;;;;;;39.17;24.00;;;7.10;99.90;;;;;;4953710;29;20330;-61
2023/01/07 02:07:42;;;;;;;34.00;22.63;;;7.10;99.90;;;;;;4953073;29;20717;-59
2023/01/07 02:10:14;;;;;;;34.67;22.73;;;7.00;99.90;;;;;;4953694;29;20262;-60
2023/01/07 02:12:55;;;;;;;33.37;23.30;;;7.10;99.90;;;;;;4953178;29;20231;-60
2023/01/07 02:15:32;;;;;;;37.77;23.93;;;7.10;99.90;;;;;;4953658;29;20687;-60
2023/01/07 02:18:13;;;;;;;40.17;25.60;;;7.10;99.90;;;;;;4955055;28;20635;-60
2023/01/07 02:20:54;;;;;;;37.33;24.73;;;7.20;99.90;;;;;;4953186;29;20715;-60
2023/01/07 02:24:06;;;;;;;37.27;25.23;;;7.20;99.90;;;;;;4954981;28;20690;-59
2023/01/07 02:27:07;;;;;;;40.57;25.73;;;7.30;99.90;;;;;;4954029;28;20230;-58
2023/01/07 02:30:17;;;;;;;41.77;27.83;;;7.30;99.90;;;;;;4948754;29;20223;-60
2023/01/07 02:33:24;;;;;;;43.20;27.20;;;7.40;99.90;;;;;;4952919;29;20293;-60
2023/01/07 02:36:08;;;;;;;42.73;27.13;;;7.40;99.90;;;;;;4953291;28;20231;-60
2023/01/07 02:38:49;;;;;;;43.57;28.53;;;7.50;99.90;;;;;;4954726;28;20258;-59
2023/01/07 02:41:27;;;;;;;48.63;28.83;;;7.60;99.90;;;;;;4953219;29;20239;-60
2023/01/07 02:44:03;;;;;;;44.40;28.63;;;7.60;99.90;;;;;;4959512;29;20235;-60
2023/01/07 02:46:37;;;;;;;46.67;28.67;;;7.60;99.90;;;;;;4959486;28;20221;-60
2023/01/07 02:49:08;;;;;;;47.23;29.30;;;7.60;99.90;;;;;;4959494;29;20245;-60
2023/01/07 02:51:40;;;;;;;49.23;31.07;;;7.70;99.90;;;;;;4959338;29;20591;-60
2023/01/07 02:54:13;;;;;;;46.37;29.90;;;7.70;99.90;;;;;;4959612;28;20239;-60
2023/01/07 02:57:10;;;;;;;45.40;28.93;;;7.70;99.90;;;;;;4959068;28;20790;-60
2023/01/07 02:59:53;;;;;;;48.70;30.53;;;7.80;99.90;;;;;;4955010;28;20655;-60
2023/01/07 03:02:43;;;;;;;50.73;31.67;;;7.80;99.90;;;;;;4960084;28;20257;-60
2023/01/07 03:05:25;;;;;;;48.03;30.97;;;7.80;99.90;;;;;;4953100;29;20227;-60
2023/01/07 03:08:11;;;;;;;47.40;30.37;;;7.90;99.90;;;;;;4960435;28;20235;-61
2023/01/07 03:10:45;;;;;;;49.83;31.57;;;7.90;99.90;;;;;;4959260;28;20227;-60
2023/01/07 03:13:17;;;;;;;51.57;31.60;;;8.00;99.90;;;;;;4960966;28;20745;-60
2023/01/07 03:15:57;;;;;;;52.77;32.80;;;8.00;99.90;;;;;;4959222;29;20234;-60
2023/01/07 03:18:28;;;;;;;53.60;33.50;;;8.00;99.90;;;;;;4960424;28;20227;-60
2023/01/07 03:21:03;;;;;;;55.37;34.63;;;8.10;99.90;;;;;;4960323;28;20710;-60
2023/01/07 03:23:35;;;;;;;55.13;34.00;;;8.00;99.90;;;;;;4959142;29;20235;-60
2023/01/07 03:26:05;;;;;;;53.27;32.77;;;8.10;99.90;;;;;;4960512;29;20243;-60
2023/01/07 03:28:39;;;;;;;53.43;33.03;;;8.20;99.90;;;;;;4960294;29;20223;-60
2023/01/07 03:31:11;;;;;;;55.70;33.60;;;8.20;99.90;;;;;;4958717;28;20250;-60
2023/01/07 03:33:45;;;;;;;52.47;33.60;;;8.20;99.90;;;;;;4959037;29;20306;-60
2023/01/07 03:36:18;;;;;;;52.90;31.00;;;8.20;99.90;;;;;;4940076;29;20232;-60
2023/01/07 03:38:49;;;;;;;55.77;34.37;;;8.30;99.90;;;;;;4939937;29;20239;-60
2023/01/07 03:43:59;;;;;;;55.07;33.83;;;8.30;99.90;;;;;;4941785;29;20230;-60
2023/01/07 03:46:28;;;;;;;53.60;33.10;;;8.40;99.90;;;;;;4939803;29;20259;-60
2023/01/07 03:48:56;;;;;;;57.87;33.33;;;8.40;99.90;;;;;;4952060;29;20591;-60
2023/01/07 03:51:24;;;;;;;55.00;33.77;;;8.40;99.90;;;;;;4959905;28;20211;-60
2023/01/07 03:53:55;;;;;;;54.67;34.43;;;8.40;99.90;;;;;;4956712;28;20736;-59
2023/01/07 03:56:23;;;;;;;51.37;32.60;;;8.40;99.90;;;;;;4956023;29;20274;-60
2023/01/07 03:58:51;;;;;;;55.63;34.43;;;8.40;99.90;;;;;;4956992;29;20228;-60
2023/01/07 04:01:19;;;;;;;52.43;32.87;;;8.50;99.90;;;;;;4955307;28;20239;-60
2023/01/07 04:03:48;;;;;;;51.33;33.10;;;8.50;99.90;;;;;;4955349;28;20227;-60
2023/01/07 04:06:17;;;;;;;54.07;34.03;;;8.50;99.90;;;;;;4955939;29;20235;-59
2023/01/07 04:08:45;;;;;;;56.03;34.33;;;8.50;99.90;;;;;;4956932;28;20278;-60
2023/01/07 04:11:14;;;;;;;52.93;32.63;;;8.60;99.90;;;;;;4955813;29;20707;-60
2023/01/07 04:13:42;;;;;;;53.80;32.93;;;8.60;99.90;;;;;;4955569;29;20729;-60
2023/01/07 04:16:11;;;;;;;54.80;34.20;;;8.70;99.90;;;;;;4955695;29;20223;-61
2023/01/07 04:18:39;;;;;;;56.23;34.40;;;8.80;99.90;;;;;;4956945;28;20231;-60
2023/01/07 04:21:07;;;;;;;53.67;32.57;;;8.80;99.90;;;;;;4956126;28;20250;-60
2023/01/07 04:23:35;;;;;;;56.10;34.60;;;8.80;99.90;;;;;;4955403;29;20595;-60
2023/01/07 04:26:03;;;;;;;55.13;33.50;;;8.80;99.90;;;;;;4956817;28;20283;-60
2023/01/07 04:28:33;;;;;;;55.77;34.63;;;8.90;99.90;;;;;;4955197;29;20238;-60
2023/01/07 04:31:01;;;;;;;58.70;38.70;;;8.90;99.90;;;;;;4955700;28;20451;-60
2023/01/07 04:33:30;;;;;;;55.37;34.60;;;8.80;99.90;;;;;;4955077;29;20235;-60
2023/01/07 04:35:59;;;;;;;53.10;33.87;;;8.90;99.90;;;;;;4954311;29;20669;-60
2023/01/07 04:38:27;;;;;;;51.37;33.10;;;8.90;99.90;;;;;;4955063;29;20595;-59
2023/01/07 04:40:56;;;;;;;52.60;34.93;;;8.90;99.90;;;;;;4955103;29;20270;-60
2023/01/07 04:43:24;;;;;;;54.33;34.23;;;9.00;99.90;;;;;;4955210;29;20231;-59
2023/01/07 04:45:55;;;;;;;53.40;33.83;;;9.00;99.90;;;;;;4954609;29;20569;-60
2023/01/07 04:48:23;;;;;;;55.37;34.53;;;9.00;99.90;;;;;;4956103;28;20226;-60
2023/01/07 04:50:53;;;;;;;49.70;32.87;;;9.00;99.90;;;;;;4952667;28;20270;-58
2023/01/07 04:53:22;;;;;;;51.23;33.63;;;9.00;99.90;;;;;;4954575;29;20231;-60
2023/01/07 04:55:52;;;;;;;51.37;33.97;;;9.10;99.90;;;;;;4954502;29;20578;-60
2023/01/07 04:58:20;;;;;;;54.13;33.53;;;9.10;99.90;;;;;;4954222;28;20305;-60
2023/01/07 05:00:50;;;;;;;49.87;33.93;;;9.10;99.90;;;;;;4951172;29;20270;-60
2023/01/07 05:03:19;;;;;;;49.20;32.50;;;9.10;99.90;;;;;;4954276;29;20235;-60
2023/01/07 05:05:48;;;;;;;48.07;31.93;;;9.10;99.90;;;;;;4953934;28;20656;-60
2023/01/07 05:08:17;;;;;;;45.27;29.80;;;9.10;99.90;;;;;;4954334;29;20314;-60
2023/01/07 05:10:48;;;;;;;50.80;33.50;;;9.20;99.90;;;;;;4954043;29;20239;-60
2023/01/07 05:13:17;;;;;;;49.00;33.30;;;9.20;99.90;;;;;;4954296;29;20238;-60
2023/01/07 05:15:46;;;;;;;50.87;34.43;;;9.20;99.90;;;;;;4953540;29;20250;-60
2023/01/07 05:18:15;;;;;;;45.83;31.83;;;9.30;99.90;;;;;;4954485;29;20691;-60
2023/01/07 05:20:46;;;;;;;49.87;33.20;;;9.20;99.90;;;;;;4954357;29;20227;-60
2023/01/07 05:23:14;;;;;;;44.97;29.23;;;9.30;99.90;;;;;;4954455;29;20607;-61
2023/01/07 05:25:44;;;;;;;47.00;32.13;;;9.30;99.90;;;;;;4954284;28;20227;-60
2023/01/07 05:28:12;;;;;;;44.20;30.83;;;9.30;99.90;;;;;;4953860;29;20228;-59
2023/01/07 05:30:41;;;;;;;48.07;32.50;;;9.30;99.90;;;;;;4953172;28;20227;-60
2023/01/07 05:33:10;;;;;;;45.90;31.33;;;9.30;99.90;;;;;;4953776;29;20227;-60
2023/01/07 05:35:38;;;;;;;44.07;31.27;;;9.30;99.90;;;;;;4952422;29;20227;-60
2023/01/07 05:38:08;;;;;;;41.63;30.17;;;9.40;99.90;;;;;;4953745;29;20273;-61
2023/01/07 05:40:36;;;;;;;38.53;28.60;;;9.40;99.90;;;;;;4954883;28;20219;-59
2023/01/07 05:43:04;;;;;;;40.07;28.07;;;9.40;99.90;;;;;;4953623;29;20725;-59
2023/01/07 05:45:33;;;;;;;40.90;29.60;;;9.40;99.90;;;;;;4950580;29;20223;-60
2023/01/07 05:48:01;;;;;;;40.90;30.17;;;9.40;99.90;;;;;;4955086;29;20239;-60
2023/01/07 05:50:29;;;;;;;38.57;28.93;;;9.50;99.90;;;;;;4954622;28;20235;-61
2023/01/07 05:53:00;;;;;;;42.43;29.63;;;9.50;99.90;;;;;;4952629;28;20225;-61
2023/01/07 05:55:29;;;;;;;36.97;28.57;;;9.50;99.90;;;;;;4954587;29;20239;-60
2023/01/07 05:57:57;;;;;;;39.27;29.37;;;9.50;99.90;;;;;;4952421;29;20234;-60
2023/01/07 06:00:25;;;;;;;37.87;29.90;;;9.50;99.90;;;;;;4954161;28;20591;-59
2023/01/07 06:02:53;;;;;;;37.30;28.23;;;9.60;99.90;;;;;;4954358;28;20241;-59
2023/01/07 06:05:22;;;;;;;37.40;29.27;;;9.50;99.90;;;;;;4954758;29;20232;-60
2023/01/07 06:07:50;;;;;;;37.50;28.33;;;9.50;99.90;;;;;;4954536;29;20228;-61
2023/01/07 06:10:18;;;;;;;38.70;28.67;;;9.60;99.90;;;;;;4955229;29;20258;-61
2023/01/07 06:12:47;;;;;;;37.13;28.37;;;9.60;99.90;;;;;;4955017;29;20231;-60
2023/01/07 06:15:15;;;;;;;36.57;28.13;;;9.60;99.90;;;;;;4954412;28;20238;-59
2023/01/07 06:17:43;;;;;;;37.50;28.50;;;9.70;99.90;;;;;;4954226;28;20592;-60
2023/01/07 06:20:13;;;;;;;36.03;28.30;;;9.60;99.90;;;;;;4955045;29;20236;-61
2023/01/07 06:22:42;;;;;;;36.50;27.10;;;9.70;99.90;;;;;;4954413;29;20245;-60
2023/01/07 06:25:11;;;;;;;38.83;29.20;;;9.70;99.90;;;;;;4955009;29;20238;-60
2023/01/07 06:27:39;;;;;;;35.90;28.67;;;9.70;99.90;;;;;;4954518;29;20235;-60
2023/01/07 06:30:10;;;;;;;34.43;27.73;;;9.70;99.90;;;;;;4954345;28;20692;-60
2023/01/07 06:32:39;;;;;;;37.03;28.60;;;9.70;99.90;;;;;;4953295;28;20256;-60
2023/01/07 06:35:09;;;;;;;37.57;28.90;;;9.70;99.90;;;;;;4954339;28;20234;-61
2023/01/07 06:37:37;;;;;;;38.80;29.20;;;9.70;99.90;;;;;;4954645;28;20227;-60
2023/01/07 06:40:07;;;;;;;38.07;28.53;;;9.70;99.90;;;;;;4954917;28;20234;-60
2023/01/07 06:42:35;;;;;;;38.40;29.03;;;9.70;99.90;;;;;;4953753;28;20224;-59
2023/01/07 06:45:03;;;;;;;36.93;29.43;;;9.70;99.90;;;;;;4935337;29;20236;-60
2023/01/07 06:47:33;;;;;;;41.87;30.87;;;9.70;99.90;;;;;;4935148;29;20711;-60
2023/01/07 06:50:01;;;;;;;38.53;30.63;;;9.70;99.90;;;;;;4935617;29;20247;-60
2023/01/07 06:52:29;;;;;;;38.93;30.27;;;9.80;99.90;;;;;;4935387;29;20590;-60
2023/01/07 06:54:57;;;;;;;36.37;28.33;;;9.70;99.90;;;;;;4935535;29;20283;-60
2023/01/07 06:57:25;;;;;;;39.97;30.40;;;9.80;99.90;;;;;;4951436;29;20224;-58
2023/01/07 06:59:53;;;;;;;38.50;30.87;;;9.80;99.90;;;;;;4954110;28;20231;-60
2023/01/07 07:02:23;;;;;;;40.17;31.40;;;9.70;99.90;;;;;;4953575;28;20254;-59
2023/01/07 07:04:53;;;;;;;42.60;31.90;;;9.70;99.90;;;;;;4953458;28;20259;-60
2023/01/07 07:07:21;;;;;;;41.20;31.90;;;9.80;99.90;;;;;;4954005;28;20227;-60
2023/01/07 07:09:50;;;;;;;42.27;31.33;;;9.70;99.90;;;;;;4954102;28;20243;-61
2023/01/07 07:12:19;;;;;;;44.63;33.70;;;9.70;99.90;;;;;;4954599;29;20239;-61
2023/01/07 07:14:47;;;;;;;41.53;31.97;;;9.80;99.90;;;;;;4953675;29;20219;-60
2023/01/07 07:17:15;;;;;;;41.47;32.43;;;9.70;99.90;;;;;;4953813;28;20248;-60
2023/01/07 07:19:43;;;;;;;44.53;35.17;;;9.80;99.90;;;;;;4953328;28;20223;-60
2023/01/07 07:22:12;;;;;;;40.70;32.07;;;9.80;99.90;;;;;;4954517;29;20238;-60
2023/01/07 07:24:40;;;;;;;44.03;34.03;;;9.80;99.90;;;;;;4953988;29;20232;-60
2023/01/07 07:27:08;;;;;;;41.73;33.23;;;9.80;99.90;;;;;;4953510;28;20232;-60
2023/01/07 07:29:36;;;;;;;43.83;33.53;;;9.80;99.90;;;;;;4956302;28;20230;-60
2023/01/07 07:32:05;;;;;;;43.67;34.27;;;9.80;99.90;;;;;;4956920;28;20758;-60
2023/01/07 07:34:33;;;;;;;44.47;35.50;;;9.70;99.90;;;;;;4956979;29;20231;-60
2023/01/07 07:37:03;;;;;;;42.40;33.27;;;9.70;99.90;;;;;;4957115;29;20238;-60
2023/01/07 07:39:33;;;;;;;45.67;33.33;;;9.70;99.90;;;;;;4954980;29;20235;-61
2023/01/07 07:42:02;;;;;;;46.63;35.53;;;9.70;99.90;;;;;;4957430;28;20305;-61
2023/01/07 07:44:30;;;;;;;43.73;33.40;;;9.80;99.90;;;;;;4957308;29;20233;-58
2023/01/07 07:46:58;;;;;;;42.07;33.23;;;9.70;99.90;;;;;;4957527;29;20684;-60
2023/01/07 07:49:27;;;;;;;41.80;33.13;;;9.70;99.90;;;;;;4956679;29;20255;-59
2023/01/07 07:51:55;;;;;;;44.43;35.10;;;9.70;99.90;;;;;;4954640;29;20230;-60
2023/01/07 07:54:23;;;;;;;43.53;33.90;;;9.70;99.90;;;;;;4957197;29;20253;-60
2023/01/07 07:56:52;;;;;;;42.50;33.43;;;9.80;99.90;;;;;;4956179;29;20215;-60
2023/01/07 07:59:20;;;;;;;43.70;32.47;;;9.80;99.90;;;;;;4956995;28;20583;-60
2023/01/07 08:01:49;;;;;;;44.10;34.60;;;9.80;99.90;;;;;;4956044;28;20231;-60
2023/01/07 08:04:17;;;;;;;41.83;32.87;;;9.70;99.90;;;;;;4954280;29;20576;-58
2023/01/07 08:06:45;;;;;;;40.73;32.70;;;9.70;99.90;;;;;;4956368;28;21270;-60
2023/01/07 08:09:13;;;;;;;41.27;33.60;;;9.70;99.90;;;;;;4957328;28;20695;-59
2023/01/07 08:11:41;;;;;;;43.47;35.13;;;9.70;99.90;;;;;;4957171;28;20242;-60
2023/01/07 08:14:11;;;;;;;41.47;33.77;;;9.70;99.90;;;;;;4957091;28;20231;-60
2023/01/07 08:16:39;;;;;;;42.93;33.43;;;9.70;99.90;;;;;;4957024;29;20227;-60
2023/01/07 08:19:07;;;;;;;39.03;30.50;;;9.70;99.90;;;;;;4957233;28;20243;-60
2023/01/07 08:21:35;;;;;;;42.90;33.77;;;9.80;99.90;;;;;;4956951;29;20231;-60
2023/01/07 08:24:03;;;;;;;42.33;32.67;;;9.80;99.90;;;;;;4957114;28;20250;-60
2023/01/07 08:26:33;;;;;;;40.97;31.87;;;9.80;99.90;;;;;;4956551;29;20231;-60
2023/01/07 08:29:01;;;;;;;41.50;31.77;;;9.80;99.90;;;;;;4956544;29;20242;-60
2023/01/07 08:31:31;;;;;;;42.93;32.00;;;9.80;99.90;;;;;;4956094;28;20258;-60
2023/01/07 08:33:59;;;;;;;41.93;32.10;;;9.80;99.90;;;;;;4956507;28;20282;-60
2023/01/07 08:36:27;;;;;;;40.60;32.00;;;9.80;99.90;;;;;;4955959;28;20236;-59
2023/01/07 08:38:55;;;;;;;40.37;31.43;;;9.80;99.90;;;;;;4956473;29;20235;-60
2023/01/07 08:41:24;;;;;;;38.60;30.83;;;9.80;99.90;;;;;;4955838;28;20224;-59
2023/01/07 08:43:53;;;;;;;38.83;30.33;;;9.80;99.90;;;;;;4956156;29;20238;-60
2023/01/07 08:46:22;;;;;;;38.03;30.80;;;9.80;99.90;;;;;;4956498;29;20692;-60
2023/01/07 08:48:51;;;;;;;39.03;31.23;;;9.80;99.90;;;;;;4956366;29;20660;-60
2023/01/07 08:51:19;;;;;;;37.53;29.47;;;9.90;99.90;;;;;;4956396;29;20216;-61
2023/01/07 08:53:47;;;;;;;36.63;28.70;;;9.90;99.90;;;;;;4956102;28;20235;-61
2023/01/07 08:56:15;;;;;;;38.03;29.27;;;9.90;99.90;;;;;;4956557;29;20583;-60
2023/01/07 08:58:43;;;;;;;33.37;26.73;;;9.90;99.90;;;;;;4955543;29;20236;-59
2023/01/07 09:01:11;;;;;;;34.53;27.00;;;9.90;99.90;;;;;;4955560;28;20610;-59
2023/01/07 09:03:40;;;;;;;32.67;26.00;;;9.90;99.90;;;;;;4955615;29;20695;-60
2023/01/07 09:06:09;;;;;;;30.80;25.13;;;9.90;99.90;;;;;;4955727;29;20239;-59
2023/01/07 09:08:39;;;;;;;31.50;24.23;;;9.90;99.90;;;;;;4955384;28;20238;-61
2023/01/07 09:11:07;;;;;;;29.77;24.20;;;9.90;99.90;;;;;;4955618;29;20698;-60
2023/01/07 09:13:35;;;;;;;27.43;22.63;;;10.00;99.90;;;;;;4955407;29;20238;-61
2023/01/07 09:16:03;;;;;;;27.17;22.27;;;10.00;99.90;;;;;;4955482;29;20224;-60
2023/01/07 09:18:31;;;;;;;30.37;20.83;;;10.00;99.90;;;;;;4955739;29;20231;-59
2023/01/07 09:21:00;;;;;;;28.70;21.30;;;10.00;99.90;;;;;;4956050;29;20232;-60
2023/01/07 09:23:29;;;;;;;24.57;20.87;;;10.00;99.90;;;;;;4945051;28;20672;-59
2023/01/07 09:25:57;;;;;;;24.93;20.17;;;10.00;99.90;;;;;;4951765;29;20229;-60
2023/01/07 09:28:25;;;;;;;22.73;19.20;;;10.10;99.90;;;;;;4955685;29;20695;-60
2023/01/07 09:30:53;;;;;;;25.20;19.77;;;10.10;99.90;;;;;;4955289;28;20236;-60
2023/01/07 09:33:23;;;;;;;20.83;17.63;;;10.10;99.90;;;;;;4954570;28;20232;-60
2023/01/07 09:35:52;;;;;;;22.43;18.30;;;10.10;99.90;;;;;;4954330;28;20231;-61
2023/01/07 09:38:20;;;;;;;20.03;17.80;;;10.10;99.90;;;;;;4955582;29;20231;-60
2023/01/07 09:40:50;;;;;;;19.30;17.20;;;10.10;99.90;;;;;;4954983;29;20240;-60
2023/01/07 09:43:27;;;;;;;18.60;16.67;;;10.10;99.90;;;;;;4943730;28;20307;-59
2023/01/07 09:46:17;;;;;;;19.87;16.77;;;10.10;99.90;;;;;;4949045;29;20282;-60
2023/01/07 09:48:52;;;;;;;19.13;15.70;;;10.10;99.90;;;;;;4948263;29;20223;-60
2023/01/07 09:51:26;;;;;;;18.77;16.77;;;10.10;99.90;;;;;;4947616;28;20227;-60
2023/01/07 09:53:59;;;;;;;16.83;15.03;;;10.20;99.90;;;;;;4949354;28;20236;-59
2023/01/07 09:56:30;;;;;;;16.80;14.63;;;10.20;99.90;;;;;;4947760;29;20239;-60
2023/01/07 09:59:00;;;;;;;15.83;14.03;;;10.20;99.90;;;;;;4946936;28;20238;-60
2023/01/07 10:01:36;;;;;;;16.50;14.03;;;10.20;99.90;;;;;;4947587;28;20297;-56
2023/01/07 10:04:18;;;;;;;15.30;13.70;;;10.20;99.90;;;;;;4947233;29;20235;-59
2023/01/07 10:06:56;;;;;;;13.80;12.40;;;10.20;99.90;;;;;;4946517;29;20232;-59
2023/01/07 10:09:35;;;;;;;13.17;11.67;;;10.20;99.90;;;;;;4947028;28;20231;-59
2023/01/07 10:12:14;;;;;;;11.93;10.73;;;10.20;99.90;;;;;;4947455;29;20226;-59
2023/01/07 10:14:57;;;;;;;12.63;10.60;;;10.20;99.90;;;;;;4948585;28;20232;-60
2023/01/07 10:17:40;;;;;;;11.60;10.40;;;10.30;99.90;;;;;;4947880;29;20235;-58
2023/01/07 10:20:17;;;;;;;10.30;9.17;;;10.30;99.90;;;;;;4945410;28;20235;-60
2023/01/07 10:22:50;;;;;;;9.67;8.60;;;10.50;99.90;;;;;;4947283;29;20242;-59
2023/01/07 10:25:21;;;;;;;9.30;8.20;;;10.60;99.90;;;;;;4949186;29;20250;-60
2023/01/07 10:27:53;;;;;;;7.80;7.10;;;10.60;99.90;;;;;;4947082;29;20231;-60
2023/01/07 10:30:25;;;;;;;8.70;7.37;;;10.60;99.90;;;;;;4945158;28;20235;-60
2023/01/07 10:33:01;;;;;;;7.53;6.80;;;10.60;99.90;;;;;;4945394;29;20244;-59
2023/01/07 10:35:33;;;;;;;7.17;6.43;;;10.60;99.90;;;;;;4946877;29;20235;-60
2023/01/07 10:38:04;;;;;;;8.17;6.80;;;10.60;99.90;;;;;;4946417;29;20228;-60
2023/01/07 10:40:40;;;;;;;6.47;5.87;;;10.50;99.90;;;;;;4945693;29;20224;-56
2023/01/07 10:43:23;;;;;;;6.23;5.63;;;10.60;99.90;;;;;;4946844;28;20231;-60
2023/01/07 10:46:15;;;;;;;6.17;5.63;;;10.70;99.90;;;;;;4948261;29;20240;-60
2023/01/07 10:49:16;;;;;;;5.83;5.23;;;10.70;99.90;;;;;;4948155;29;20700;-60
2023/01/07 10:51:56;;;;;;;5.27;4.77;;;10.90;99.90;;;;;;4948857;29;20231;-60
2023/01/07 10:54:44;;;;;;;5.90;4.97;;;10.90;99.90;;;;;;4947786;29;20273;-55
2023/01/07 10:57:17;;;;;;;4.97;4.47;;;10.80;99.90;;;;;;4948776;29;20223;-60
2023/01/07 10:59:49;;;;;;;5.53;5.03;;;10.80;99.90;;;;;;4947564;28;20569;-60
2023/01/07 11:02:20;;;;;;;6.23;5.63;;;10.70;99.90;;;;;;4949329;28;20236;-60
2023/01/07 11:04:49;;;;;;;6.23;5.27;;;10.70;99.90;;;;;;4956632;28;20231;-60
2023/01/07 11:07:28;;;;;;;6.90;6.10;;;10.70;99.90;;;;;;4958001;29;20239;-60
2023/01/07 11:09:58;;;;;;;7.67;6.43;;;10.80;99.90;;;;;;4958243;29;20707;-60
2023/01/07 11:12:34;;;;;;;8.70;5.47;;;10.70;99.90;;;;;;4958225;28;20251;-60
2023/01/07 11:15:08;;;;;;;7.17;5.50;;;10.70;99.90;;;;;;4958332;29;20232;-60
2023/01/07 11:17:41;;;;;;;6.70;6.00;;;10.80;99.90;;;;;;4958237;28;20583;-60
2023/01/07 11:20:11;;;;;;;5.07;4.53;;;10.80;99.90;;;;;;4957866;29;20232;-60
2023/01/07 11:22:39;;;;;;;4.00;3.67;;;10.80;99.90;;;;;;4957777;29;20232;-60
2023/01/07 11:25:26;;;;;;;4.03;3.63;;;10.70;99.90;;;;;;4957516;29;20234;-60
2023/01/07 11:27:57;;;;;;;4.63;3.60;;;10.70;99.90;;;;;;4957775;28;20231;-60
2023/01/07 11:30:29;;;;;;;3.73;3.23;;;10.80;99.90;;;;;;4957001;28;20238;-60
2023/01/07 11:33:03;;;;;;;3.27;2.97;;;10.80;99.90;;;;;;4957497;29;20228;-60
2023/01/07 11:35:32;;;;;;;3.40;3.10;;;10.80;99.90;;;;;;4955981;29;20239;-60
2023/01/07 11:38:02;;;;;;;3.10;2.80;;;10.80;99.90;;;;;;4958031;28;20232;-59
2023/01/07 11:40:32;;;;;;;3.50;3.20;;;10.80;99.90;;;;;;4957799;28;20233;-61
2023/01/07 11:43:02;;;;;;;4.00;3.43;;;10.70;99.90;;;;;;4957676;28;20220;-60
2023/01/07 11:45:35;;;;;;;4.10;3.50;;;10.80;99.90;;;;;;4956689;28;20763;-59
2023/01/07 11:48:09;;;;;;;3.87;3.40;;;10.80;99.90;;;;;;4957375;29;20224;-60
2023/01/07 11:50:39;;;;;;;2.80;2.57;;;10.80;99.90;;;;;;4957414;29;20609;-59
2023/01/07 11:53:23;;;;;;;3.33;2.77;;;10.90;99.90;;;;;;4957544;29;20279;-60
2023/01/07 11:56:02;;;;;;;2.70;2.30;;;10.90;99.90;;;;;;4957678;29;20246;-60
2023/01/07 11:58:32;;;;;;;3.07;2.53;;;10.90;99.90;;;;;;4956629;28;20228;-59
2023/01/07 12:01:18;;;;;;;3.27;2.47;;;10.90;99.90;;;;;;4955887;28;20294;-60
2023/01/07 12:04:12;;;;;;;3.37;2.60;;;10.90;99.90;;;;;;4947607;29;20236;-59
2023/01/07 12:06:44;;;;;;;4.73;2.70;;;10.90;99.90;;;;;;4949965;29;20243;-58
2023/01/07 12:09:22;;;;;;;3.10;2.80;;;10.90;99.90;;;;;;4948684;29;20700;-60
2023/01/07 12:11:51;;;;;;;2.87;2.43;;;10.90;99.90;;;;;;4949868;29;20228;-60
2023/01/07 12:14:25;;;;;;;3.63;2.03;;;10.90;99.90;;;;;;4950731;28;20228;-60
2023/01/07 12:16:56;;;;;;;3.40;2.33;;;10.90;99.90;;;;;;4949725;29;20225;-59
2023/01/07 12:19:41;;;;;;;2.93;2.53;;;10.90;99.90;;;;;;4948429;29;20583;-59
2023/01/07 12:22:25;;;;;;;3.57;2.67;;;10.90;99.90;;;;;;4950290;29;20592;-59
2023/01/07 12:25:26;;;;;;;2.30;2.10;;;10.90;99.90;;;;;;4951646;29;20254;-56
2023/01/07 12:28:03;;;;;;;2.07;1.87;;;10.90;99.90;;;;;;4931394;29;20230;-60
2023/01/07 12:30:53;;;;;;;2.80;2.10;;;10.90;99.90;;;;;;4948985;28;20232;-60
2023/01/07 12:33:39;;;;;;;2.77;2.20;;;10.80;99.90;;;;;;4950435;29;20319;-60
2023/01/07 12:36:14;;;;;;;2.83;2.53;;;10.80;99.90;;;;;;4953805;29;20224;-60
2023/01/07 12:38:47;;;;;;;3.60;2.30;;;10.80;99.90;;;;;;4949861;29;20240;-60
2023/01/07 12:41:19;;;;;;;3.03;2.20;;;10.80;99.90;;;;;;4956853;29;20235;-60
2023/01/07 12:43:58;;;;;;;4.40;2.57;;;10.70;99.90;;;;;;4956419;29;20747;-60
2023/01/07 12:46:32;;;;;;;2.57;2.00;;;10.70;99.90;;;;;;4955872;28;20245;-57
2023/01/07 12:49:07;;;;;;;4.00;2.33;;;10.70;99.90;;;;;;4956573;29;20228;-60
2023/01/07 12:51:42;;;;;;;3.30;2.60;;;10.70;99.90;;;;;;4955156;29;20230;-60
2023/01/07 12:54:17;;;;;;;3.77;2.87;;;10.80;99.90;;;;;;4948921;29;20240;-60
2023/01/07 12:56:51;;;;;;;2.80;2.30;;;10.80;99.90;;;;;;4955956;28;20234;-59
2023/01/07 12:59:24;;;;;;;3.20;2.10;;;10.80;99.90;;;;;;4955746;28;20240;-60
2023/01/07 13:02:21;;;;;;;2.33;2.13;;;10.70;99.90;;;;;;4949785;29;20252;-60
2023/01/07 13:04:59;;;;;;;1.70;1.60;;;10.80;99.90;;;;;;4955366;28;20228;-60
2023/01/07 13:07:38;;;;;;;2.40;2.20;;;10.80;99.90;;;;;;4955629;29;20237;-59
2023/01/07 13:10:12;;;;;;;2.53;2.30;;;10.70;99.90;;;;;;4955377;29;20223;-60